Impacts TAF Board INFO
FOR SITUATIONAL AWARENESS. NOT TO BE USED FOR FLIGHT PLANNING PURPOSES.
IDs:

KLAS - Las Vegas/McCarran I, NV, US

Issued at 1731 UTC 18 Nov 2017
Updated at 1746 UTC 18 Nov 2017
Potential Impact None Slight Moderate High
Time1656Z 18/18Z 18/19Z 18/20Z 18/21Z 18/22Z 18/23Z 19/00Z 19/01Z 19/02Z 19/03Z 19/04Z 19/05Z 19/06Z>>
Type OBS PRVL PRVL PRVL PRVL PRVL PRVL PRVL PRVL PRVL PRVL PRVL PRVL PRVL
VIS 10 >6 >6 >6 >6 >6 >6 >6 >6 >6 >6 >6 >6 >6
CIG -- -- -- -- -- -- -- -- -- -- -- -- -- --
Cover CLR SKC SKC SKC SKC SKC SKC SKC SKC SKC SKC SKC SKC SKC
FltCat VFR VFR VFR VFR VFR VFR VFR VFR VFR VFR VFR VFR VFR VFR
WX -- -- -- -- -- -- -- -- -- -- -- -- -- --
WDir VRB 30 30 30 30 30 30 30 30 210 210 210 210 210
WSpd 4 9 9 9 9 9 9 9 9 6 6 6 6 6
WGst -- -- -- -- -- -- -- -- -- -- -- -- -- --

Raw TAF
KLAS 181731Z 1818/1924 03009KT P6SM SKC
  FM190200 21006KT P6SM SKC
  FM191400 VRB05KT P6SM SKC


Raw METAR
KLAS 181656Z VRB04KT 10SM CLR 11/M09 A3038 RMK AO2 SLP282 T01111094
KLAS 181556Z 15006KT 10SM CLR 10/M08 A3037 RMK AO2 SLP278 T01001083
KLAS 181456Z 02004KT 10SM CLR 09/M08 A3035 RMK AO2 SLP272 T00891083 53018

METAR Board
Radar Display
Forecast Discussion

FOR SITUATIONAL AWARENESS. NOT TO BE USED FOR FLIGHT PLANNING PURPOSES.